ADDS METAR Data INFO
IDs: Format: Raw Decoded Include TAF

Data at: 0103 UTC 21 Oct 2017

KDET 210053Z 17004KT 10SM CLR 16/06 A3016 RMK AO2 SLP214 T01560061
KDET 202353Z 17004KT 10SM CLR 16/07 A3016 RMK AO2 SLP216 T01610067 10206 20161 55005
KDET 202253Z 18004KT 10SM CLR 17/07 A3016 RMK AO2 SLP215 T01720067
KDET 202153Z 19008KT 10SM CLR 19/07 A3017 RMK AO2 SLP216 T01940067
KDET 202053Z 21009KT 10SM CLR 20/07 A3018 RMK AO2 SLP220 T02000072 57016
KDET 201953Z 19010KT 10SM CLR 21/06 A3019 RMK AO2 SLP224 T02060056
KDET 201853Z 19009KT 10SM CLR 20/04 A3022 RMK AO2 SLP231 T02000044
KDET 201753Z 18010KT 10SM CLR 20/04 A3023 RMK AO2 SLP236 T02000044 10200 20056 58019
KDET 201653Z 19009KT 10SM CLR 19/06 A3026 RMK AO2 SLP245 T01940061
KDET 201553Z 19007KT 10SM CLR 17/06 A3027 RMK AO2 SLP251 T01720056
KDET 201453Z 22006KT 10SM CLR 15/04 A3029 RMK AO2 SLP256 T01500044 50008
KDET 201353Z 19003KT 10SM CLR 13/02 A3029 RMK AO2 SLP258 T01280022
KDET 201253Z 22006KT 10SM CLR 09/05 A3028 RMK AO2 SLP256 T00890050
KDET 201153Z 00000KT 10SM CLR 06/03 A3026 RMK AO2 SLP249 T00610028 10111 20050 51012
KDET 201053Z 00000KT 10SM CLR 06/02 A3025 RMK AO2 SLP246 T00560022
KDET 200953Z 00000KT 10SM CLR 07/02 A3024 RMK AO2 SLP241 T00670022
KDET 200853Z 00000KT 10SM CLR 07/02 A3023 RMK AO2 SLP236 T00720022 51008
KDET 200753Z 00000KT 10SM CLR 08/02 A3022 RMK AO2 SLP234 T00780022
KDET 200653Z 00000KT 10SM CLR 09/01 A3021 RMK AO2 SLP230 T00940011
KDET 200553Z 29004KT 10SM CLR 11/01 A3020 RMK AO2 SLP226 T01110006 10161 20111 51009
KDET 200453Z 31004KT 10SM CLR 12/01 A3020 RMK AO2 SLP225 T01170006 402110117
KDET 200353Z 28003KT 10SM CLR 12/01 A3018 RMK AO2 SLP220 T01220006
KDET 200253Z 28003KT 10SM CLR 13/01 A3017 RMK AO2 SLP218 T01280006 51010
KDET 200153Z 26003KT 10SM CLR 13/01 A3016 RMK AO2 SLP215 T01330006
KDET 200053Z 26003KT 10SM CLR 13/01 A3016 RMK AO2 SLP213 T01330006
KDET 192353Z 28004KT 10SM CLR 17/M02 A3014 RMK AO2 SLP208 T01671022 10211 20167 53017
KDET 192253Z 29006KT 10SM CLR 18/M02 A3012 RMK AO2 SLP200 T01781017
KDET 192153Z 28008KT 10SM CLR 20/00 A3011 RMK AO2 SLP195 T02000000
KDET 192053Z 28008KT 10SM CLR 21/02 A3009 RMK AO2 SLP190 T02060017 53001
KDET 191953Z 28010G16KT 10SM CLR 21/03 A3009 RMK AO2 SLP186 T02110033
KDET 191853Z 27009KT 10SM CLR 21/04 A3009 RMK AO2 SLP186 T02060044
KDET 191753Z 29009KT 10SM CLR 20/07 A3009 RMK AO2 SLP188 T02000072 10200 20117 58004
KDET 191653Z 27011KT 10SM CLR 19/08 A3011 RMK AO2 SLP195 T01890083
KDET 191553Z 28007KT 10SM CLR 17/09 A3012 RMK AO2 SLP199 T01720089
KDET 191453Z 27010KT 240V300 10SM CLR 16/08 A3010 RMK AO2 SLP193 T01560083 51013
KDET 191353Z 25008KT 10SM CLR 14/08 A3010 RMK AO2 SLP190 T01390083